Time;durP1;ratioP1;P1;durP2;ratioP2;P2;SDS_P1;SDS_P2;PMS_P1;PMS_P2;Temp;Humidity;BMP_temperature;BMP_pressure;BME280_temperature;BME280_humidity;BME280_pressure;Samples;Min_cycle;Max_cycle;Signal;HPM_P1;HPM_P2
2022/10/10 00:01:49;;;;;;;;;21.25;21.25;;;;;;;;5099454;27;45298;-75
2022/10/10 00:04:14;;;;;;;;;18.75;18.75;;;;;;;;5094553;27;45290;-74
2022/10/10 00:06:40;;;;;;;;;18.25;18.25;;;;;;;;5078429;27;45405;-76
2022/10/10 00:09:05;;;;;;;;;17.25;16.25;;;;;;;;5075944;27;45369;-75
2022/10/10 00:11:30;;;;;;;;;19.75;19.75;;;;;;;;5074187;28;45366;-73
2022/10/10 00:13:55;;;;;;;;;17.50;17.50;;;;;;;;5087180;27;45510;-72
2022/10/10 00:16:21;;;;;;;;;21.00;21.00;;;;;;;;5095987;27;45334;-75
2022/10/10 00:18:46;;;;;;;;;19.25;19.25;;;;;;;;5096697;27;46146;-77
2022/10/10 00:21:12;;;;;;;;;22.25;22.25;;;;;;;;5089193;27;45314;-74
2022/10/10 00:23:37;;;;;;;;;19.00;18.50;;;;;;;;5083989;27;45391;-75
2022/10/10 00:26:03;;;;;;;;;20.00;20.00;;;;;;;;5095156;27;45522;-75
2022/10/10 00:28:28;;;;;;;;;17.75;17.75;;;;;;;;5094507;27;45507;-75
2022/10/10 00:30:53;;;;;;;;;17.50;17.50;;;;;;;;5090544;27;45518;-75
2022/10/10 00:33:18;;;;;;;;;24.00;23.00;;;;;;;;5093844;27;45415;-75
2022/10/10 00:35:44;;;;;;;;;22.50;22.50;;;;;;;;5094812;27;45155;-74
2022/10/10 00:38:09;;;;;;;;;20.75;20.75;;;;;;;;5090595;27;45640;-74
2022/10/10 00:40:35;;;;;;;;;17.50;17.50;;;;;;;;5082543;27;45480;-75
2022/10/10 00:43:00;;;;;;;;;18.75;18.75;;;;;;;;5093906;27;45452;-77
2022/10/10 00:45:40;;;;;;;;;13.75;13.75;;;;;;;;5089086;27;45310;-75
2022/10/10 00:48:08;;;;;;;;;16.00;15.50;;;;;;;;5082567;27;45391;-75
2022/10/10 00:50:37;;;;;;;;;17.75;17.75;;;;;;;;5094600;27;45492;-74
2022/10/10 00:53:04;;;;;;;;;15.75;15.75;;;;;;;;5094905;27;45317;-74
2022/10/10 00:55:29;;;;;;;;;20.75;20.75;;;;;;;;5086970;27;45433;-73
2022/10/10 00:57:55;;;;;;;;;18.75;18.75;;;;;;;;5095118;27;46535;-75
2022/10/10 01:00:20;;;;;;;;;18.25;18.25;;;;;;;;5112798;27;45377;-74
2022/10/10 01:02:45;;;;;;;;;17.00;17.00;;;;;;;;5083974;27;45424;-75
2022/10/10 01:05:10;;;;;;;;;15.50;15.50;;;;;;;;5078757;27;45346;-76
2022/10/10 01:07:36;;;;;;;;;18.50;18.50;;;;;;;;5094411;27;46250;-74
2022/10/10 01:10:05;;;;;;;;;18.75;18.50;;;;;;;;5094694;27;45499;-75
2022/10/10 01:12:33;;;;;;;;;17.50;17.50;;;;;;;;5077982;27;45262;-73
2022/10/10 01:15:10;;;;;;;;;18.00;17.75;;;;;;;;5085483;27;45400;-76
2022/10/10 01:17:54;;;;;;;;;17.25;17.25;;;;;;;;5094385;27;45489;-74
2022/10/10 01:20:40;;;;;;;;;15.75;15.75;;;;;;;;5086699;27;45591;-76
2022/10/10 01:23:24;;;;;;;;;18.25;18.25;;;;;;;;5078638;27;45667;-74
2022/10/10 01:26:08;;;;;;;;;15.25;15.25;;;;;;;;5111069;27;45372;-74
2022/10/10 01:28:36;;;;;;;;;18.00;18.00;;;;;;;;5103186;27;46221;-74
2022/10/10 01:31:04;;;;;;;;;14.25;14.25;;;;;;;;5092904;27;45431;-75
2022/10/10 01:33:50;;;;;;;;;15.00;15.00;;;;;;;;5097244;27;45345;-72
2022/10/10 01:36:21;;;;;;;;;15.25;15.25;;;;;;;;5091639;27;45195;-74
2022/10/10 01:39:05;;;;;;;;;18.50;18.50;;;;;;;;5090574;27;46480;-76
2022/10/10 01:41:33;;;;;;;;;4.75;4.00;;;;;;;;5091841;27;45428;-73
2022/10/10 01:43:58;;;;;;;;;15.50;15.50;;;;;;;;5092890;27;45326;-74
2022/10/10 01:46:23;;;;;;;;;12.75;12.75;;;;;;;;5085358;27;45291;-76
2022/10/10 01:48:50;;;;;;;;;14.75;14.75;;;;;;;;5089511;27;45959;-74
2022/10/10 01:51:26;;;;;;;;;17.50;17.50;;;;;;;;5095794;27;45485;-75
2022/10/10 01:53:54;;;;;;;;;13.50;13.50;;;;;;;;5082874;27;45344;-77
2022/10/10 01:56:37;;;;;;;;;13.00;13.00;;;;;;;;5092546;27;45341;-75
2022/10/10 01:59:14;;;;;;;;;24.25;24.25;;;;;;;;5097181;27;46341;-74
2022/10/10 02:01:51;;;;;;;;;23.00;23.00;;;;;;;;5096350;27;45444;-75
2022/10/10 02:04:24;;;;;;;;;16.25;16.25;;;;;;;;5081881;27;45360;-75
2022/10/10 02:06:56;;;;;;;;;13.50;13.50;;;;;;;;5079423;27;45458;-74
2022/10/10 02:09:27;;;;;;;;;15.00;15.00;;;;;;;;5094336;27;46178;-77
2022/10/10 02:11:53;;;;;;;;;15.50;15.50;;;;;;;;5111270;27;47074;-76
2022/10/10 02:14:23;;;;;;;;;14.00;14.00;;;;;;;;5099853;27;45306;-75
2022/10/10 02:16:50;;;;;;;;;14.75;14.25;;;;;;;;5080098;27;45606;-76
2022/10/10 02:19:17;;;;;;;;;12.75;12.75;;;;;;;;5093779;27;45328;-74
2022/10/10 02:21:43;;;;;;;;;13.50;13.50;;;;;;;;5098610;27;45263;-76
2022/10/10 02:24:10;;;;;;;;;15.50;15.50;;;;;;;;5097544;27;45546;-76
2022/10/10 02:26:37;;;;;;;;;15.00;15.00;;;;;;;;5099475;27;45425;-77
2022/10/10 02:29:08;;;;;;;;;13.50;13.50;;;;;;;;5098772;27;45315;-74
2022/10/10 02:31:37;;;;;;;;;13.25;13.25;;;;;;;;5081897;27;45875;-73
2022/10/10 02:34:11;;;;;;;;;15.00;15.00;;;;;;;;5080694;27;45481;-75
2022/10/10 02:36:38;;;;;;;;;14.00;14.00;;;;;;;;5096961;27;45242;-73
2022/10/10 02:39:05;;;;;;;;;18.00;18.00;;;;;;;;5084990;27;45389;-74
2022/10/10 02:41:31;;;;;;;;;14.75;14.75;;;;;;;;5083804;27;45329;-75
2022/10/10 02:43:57;;;;;;;;;12.75;12.75;;;;;;;;5096763;27;45547;-75
2022/10/10 02:46:22;;;;;;;;;14.75;14.25;;;;;;;;5097195;27;45461;-75
2022/10/10 02:48:47;;;;;;;;;17.25;17.00;;;;;;;;5091153;27;46367;-77
2022/10/10 02:51:14;;;;;;;;;21.50;21.50;;;;;;;;5089678;27;45465;-74
2022/10/10 02:53:39;;;;;;;;;14.00;14.00;;;;;;;;5102317;27;45383;-75
2022/10/10 02:56:04;;;;;;;;;15.75;15.75;;;;;;;;5100229;27;45427;-75
2022/10/10 02:58:30;;;;;;;;;20.25;18.00;;;;;;;;5104084;27;45915;-74
2022/10/10 03:00:55;;;;;;;;;16.50;16.50;;;;;;;;5090013;27;45724;-76
2022/10/10 03:03:20;;;;;;;;;15.25;15.25;;;;;;;;5085699;27;45210;-73
2022/10/10 03:05:45;;;;;;;;;17.75;17.75;;;;;;;;5077542;27;45437;-72
2022/10/10 03:08:10;;;;;;;;;11.00;11.00;;;;;;;;5084005;27;46157;-76
2022/10/10 03:10:35;;;;;;;;;22.00;21.25;;;;;;;;5087263;27;45393;-74
2022/10/10 03:13:01;;;;;;;;;22.75;22.75;;;;;;;;5114945;27;45406;-75
2022/10/10 03:15:26;;;;;;;;;21.50;21.50;;;;;;;;5077294;27;45412;-77
2022/10/10 03:17:51;;;;;;;;;20.75;20.75;;;;;;;;5099790;27;45428;-75
2022/10/10 03:20:16;;;;;;;;;17.00;17.00;;;;;;;;5096390;27;45484;-74
2022/10/10 03:22:41;;;;;;;;;14.00;14.00;;;;;;;;5092518;27;45313;-76
2022/10/10 03:25:07;;;;;;;;;13.75;13.75;;;;;;;;5087506;27;45254;-74
2022/10/10 03:27:32;;;;;;;;;15.75;15.75;;;;;;;;5105039;27;46346;-75
2022/10/10 03:29:57;;;;;;;;;14.25;14.25;;;;;;;;5092293;27;45250;-75
2022/10/10 03:32:22;;;;;;;;;13.75;13.75;;;;;;;;5082781;27;45452;-73
2022/10/10 03:34:48;;;;;;;;;13.00;13.00;;;;;;;;5095952;27;45295;-74
2022/10/10 03:37:13;;;;;;;;;14.75;14.75;;;;;;;;5094133;27;45916;-75
2022/10/10 03:39:38;;;;;;;;;13.75;13.75;;;;;;;;5083880;27;45334;-70
2022/10/10 03:42:03;;;;;;;;;17.75;16.00;;;;;;;;5091781;27;45372;-72
2022/10/10 03:44:30;;;;;;;;;16.00;16.00;;;;;;;;5079208;27;45419;-76
2022/10/10 03:46:55;;;;;;;;;14.25;14.25;;;;;;;;5080576;27;45484;-73
2022/10/10 03:49:20;;;;;;;;;13.75;13.75;;;;;;;;5088356;27;45463;-76
2022/10/10 03:51:46;;;;;;;;;12.75;12.75;;;;;;;;5080578;27;45523;-75
2022/10/10 03:54:11;;;;;;;;;16.25;15.75;;;;;;;;5097447;27;46120;-80
2022/10/10 03:56:36;;;;;;;;;14.50;14.50;;;;;;;;5098825;27;46162;-74
2022/10/10 03:59:02;;;;;;;;;15.25;15.25;;;;;;;;5094454;27;45507;-78
2022/10/10 04:01:28;;;;;;;;;13.50;13.50;;;;;;;;5091323;27;45483;-73
2022/10/10 04:03:54;;;;;;;;;14.25;14.25;;;;;;;;5081417;27;45607;-77
2022/10/10 04:06:19;;;;;;;;;12.75;12.75;;;;;;;;5092711;27;46246;-78
2022/10/10 04:08:44;;;;;;;;;11.75;11.75;;;;;;;;5077152;27;45299;-77
2022/10/10 04:11:10;;;;;;;;;10.50;10.50;;;;;;;;5090824;27;45455;-72
2022/10/10 04:13:35;;;;;;;;;12.25;12.25;;;;;;;;5097832;27;45554;-77
2022/10/10 04:16:00;;;;;;;;;10.50;10.50;;;;;;;;5095671;27;46143;-71
2022/10/10 04:18:25;;;;;;;;;16.50;16.50;;;;;;;;5095210;27;45392;-75
2022/10/10 04:20:51;;;;;;;;;13.00;13.00;;;;;;;;5094320;27;45210;-73
2022/10/10 04:23:16;;;;;;;;;9.75;9.75;;;;;;;;5075320;27;45615;-77
2022/10/10 04:25:42;;;;;;;;;12.75;12.75;;;;;;;;5078705;27;46192;-79
2022/10/10 04:28:10;;;;;;;;;13.25;13.25;;;;;;;;5088654;27;45734;-77
2022/10/10 04:30:35;;;;;;;;;13.75;13.25;;;;;;;;5092323;27;45451;-74
2022/10/10 04:33:00;;;;;;;;;12.00;12.00;;;;;;;;5098867;27;45719;-73
2022/10/10 04:35:25;;;;;;;;;26.00;25.75;;;;;;;;5085792;27;45508;-74
2022/10/10 04:37:51;;;;;;;;;18.50;16.75;;;;;;;;5080073;27;45561;-77
2022/10/10 04:40:16;;;;;;;;;12.25;12.25;;;;;;;;5080255;27;45321;-75
2022/10/10 04:42:41;;;;;;;;;12.00;12.00;;;;;;;;5084690;27;45616;-75
2022/10/10 04:45:07;;;;;;;;;15.00;13.50;;;;;;;;5108086;27;46369;-76
2022/10/10 04:47:32;;;;;;;;;12.25;12.25;;;;;;;;5107941;27;45325;-78
2022/10/10 04:49:57;;;;;;;;;13.75;13.75;;;;;;;;5084619;27;45324;-79
2022/10/10 04:52:22;;;;;;;;;12.25;12.25;;;;;;;;5084952;27;45541;-74
2022/10/10 04:54:48;;;;;;;;;14.00;13.50;;;;;;;;5091571;27;45429;-72
2022/10/10 04:57:13;;;;;;;;;11.00;11.00;;;;;;;;5103378;27;45445;-79
2022/10/10 04:59:38;;;;;;;;;15.00;14.75;;;;;;;;5103549;27;45272;-78
2022/10/10 05:02:03;;;;;;;;;13.00;13.00;;;;;;;;5100216;27;45471;-78
2022/10/10 05:04:29;;;;;;;;;11.75;11.75;;;;;;;;5092722;27;45341;-75
2022/10/10 05:06:54;;;;;;;;;11.75;11.75;;;;;;;;5081130;27;45357;-80
2022/10/10 05:09:19;;;;;;;;;13.25;13.25;;;;;;;;5087680;27;45421;-79
2022/10/10 05:11:44;;;;;;;;;11.50;11.50;;;;;;;;5098524;27;45283;-72
2022/10/10 05:14:10;;;;;;;;;11.50;11.50;;;;;;;;5098513;27;46962;-77
2022/10/10 05:16:35;;;;;;;;;13.25;13.25;;;;;;;;5100107;27;45287;-75
2022/10/10 05:19:00;;;;;;;;;16.25;16.25;;;;;;;;5080422;27;45389;-76
2022/10/10 05:21:26;;;;;;;;;11.25;11.25;;;;;;;;5084593;27;45303;-74
2022/10/10 05:23:52;;;;;;;;;16.00;16.00;;;;;;;;5082768;27;47152;-76
2022/10/10 05:26:18;;;;;;;;;14.25;14.25;;;;;;;;5098768;27;45556;-73
2022/10/10 05:28:44;;;;;;;;;14.75;14.75;;;;;;;;5085858;27;45472;-76
2022/10/10 05:31:09;;;;;;;;;12.75;12.75;;;;;;;;5096987;27;45432;-77
2022/10/10 05:33:34;;;;;;;;;18.25;17.75;;;;;;;;5084691;27;45549;-74
2022/10/10 05:36:03;;;;;;;;;16.25;16.25;;;;;;;;5076859;27;45395;-74
2022/10/10 05:38:28;;;;;;;;;14.25;14.25;;;;;;;;5088643;27;45416;-71
2022/10/10 05:40:53;;;;;;;;;19.50;19.50;;;;;;;;5092269;27;45487;-79
2022/10/10 05:43:19;;;;;;;;;14.75;14.75;;;;;;;;5080829;27;46204;-77
2022/10/10 05:45:44;;;;;;;;;14.00;14.00;;;;;;;;5076948;27;45688;-77
2022/10/10 05:48:09;;;;;;;;;14.50;12.50;;;;;;;;5079765;27;45938;-79
2022/10/10 05:50:39;;;;;;;;;17.25;17.25;;;;;;;;5079748;27;45412;-75
2022/10/10 05:53:05;;;;;;;;;14.75;14.75;;;;;;;;5078920;27;46967;-75
2022/10/10 05:55:30;;;;;;;;;14.25;14.25;;;;;;;;5099954;27;45397;-77
2022/10/10 05:57:56;;;;;;;;;16.50;16.50;;;;;;;;5096973;27;45440;-75
2022/10/10 06:00:21;;;;;;;;;13.50;13.50;;;;;;;;5094729;27;45251;-81
2022/10/10 06:02:47;;;;;;;;;13.00;13.00;;;;;;;;5078351;27;47220;-77
2022/10/10 06:05:12;;;;;;;;;14.00;14.00;;;;;;;;5080597;27;45305;-77
2022/10/10 06:07:37;;;;;;;;;14.50;14.50;;;;;;;;5083073;28;45305;-75
2022/10/10 06:10:03;;;;;;;;;14.75;14.75;;;;;;;;5091425;27;45538;-83
2022/10/10 06:12:28;;;;;;;;;18.25;18.25;;;;;;;;5113428;27;48218;-72
2022/10/10 06:14:53;;;;;;;;;16.50;15.75;;;;;;;;5082697;27;45413;-76
2022/10/10 06:17:21;;;;;;;;;17.00;16.00;;;;;;;;5078103;27;45390;-74
2022/10/10 06:19:47;;;;;;;;;18.50;17.50;;;;;;;;5090678;27;45340;-77
2022/10/10 06:22:12;;;;;;;;;14.00;14.00;;;;;;;;5064050;28;45290;-77
2022/10/10 06:24:37;;;;;;;;;15.25;15.00;;;;;;;;5057496;28;45231;-75
2022/10/10 06:27:02;;;;;;;;;16.25;16.25;;;;;;;;5057714;28;45284;-75
2022/10/10 06:29:27;;;;;;;;;15.50;15.50;;;;;;;;5058932;28;45603;-74
2022/10/10 06:31:53;;;;;;;;;13.50;13.50;;;;;;;;5062949;28;46128;-74
2022/10/10 06:34:18;;;;;;;;;17.25;17.25;;;;;;;;5076543;28;45320;-73
2022/10/10 06:36:43;;;;;;;;;20.25;20.25;;;;;;;;5080037;28;45323;-74
2022/10/10 06:39:08;;;;;;;;;14.50;14.50;;;;;;;;5086802;28;45215;-70
2022/10/10 06:41:34;;;;;;;;;16.00;16.00;;;;;;;;5075768;28;45465;-75
2022/10/10 06:43:59;;;;;;;;;17.00;17.00;;;;;;;;5069655;28;45354;-70
2022/10/10 06:46:24;;;;;;;;;17.75;17.75;;;;;;;;5076381;28;45280;-72
2022/10/10 06:48:49;;;;;;;;;17.50;17.25;;;;;;;;5046449;28;45338;-71
2022/10/10 06:51:15;;;;;;;;;26.25;26.25;;;;;;;;5075878;28;45993;-70
2022/10/10 06:53:41;;;;;;;;;14.75;14.75;;;;;;;;5077644;28;45367;-70
2022/10/10 06:56:07;;;;;;;;;17.00;17.00;;;;;;;;5047034;28;45456;-73
2022/10/10 06:58:32;;;;;;;;;19.25;19.25;;;;;;;;5040652;28;46872;-73
2022/10/10 07:00:59;;;;;;;;;14.50;14.50;;;;;;;;5058179;28;46155;-84
2022/10/10 07:03:24;;;;;;;;;16.25;16.25;;;;;;;;5057881;28;45228;-83
2022/10/10 07:05:51;;;;;;;;;17.50;17.50;;;;;;;;5056789;28;45378;-71
2022/10/10 07:08:16;;;;;;;;;22.00;22.00;;;;;;;;5056814;28;45319;-71
2022/10/10 07:10:42;;;;;;;;;16.75;16.75;;;;;;;;5056147;28;45192;-72
2022/10/10 07:13:07;;;;;;;;;16.00;14.50;;;;;;;;5037864;28;45367;-79
2022/10/10 07:15:32;;;;;;;;;19.00;19.00;;;;;;;;5056688;28;45305;-76
2022/10/10 07:17:57;;;;;;;;;16.50;16.50;;;;;;;;5059411;28;45214;-69
2022/10/10 07:20:23;;;;;;;;;17.50;17.00;;;;;;;;5062315;28;45455;-72
2022/10/10 07:22:48;;;;;;;;;23.00;23.00;;;;;;;;5080013;27;45350;-73
2022/10/10 07:25:13;;;;;;;;;18.75;18.25;;;;;;;;5091230;27;45249;-78
2022/10/10 07:27:38;;;;;;;;;17.00;17.00;;;;;;;;5093311;27;45378;-72
2022/10/10 07:30:05;;;;;;;;;16.25;16.00;;;;;;;;5096121;27;46467;-72
2022/10/10 07:32:30;;;;;;;;;17.00;17.00;;;;;;;;5092627;27;45650;-67
2022/10/10 07:34:57;;;;;;;;;23.25;23.25;;;;;;;;5095531;27;45489;-69
2022/10/10 07:37:22;;;;;;;;;18.25;18.25;;;;;;;;5095172;27;45565;-67
2022/10/10 07:39:47;;;;;;;;;18.25;18.25;;;;;;;;5096404;27;46171;-69
2022/10/10 07:42:13;;;;;;;;;19.25;19.25;;;;;;;;5094759;27;45548;-72
2022/10/10 07:44:38;;;;;;;;;20.25;20.25;;;;;;;;5095485;27;45499;-73
2022/10/10 07:47:03;;;;;;;;;17.25;17.25;;;;;;;;5097213;27;45492;-76
2022/10/10 07:49:28;;;;;;;;;18.50;18.50;;;;;;;;5096854;27;45365;-78
2022/10/10 07:51:53;;;;;;;;;17.75;17.75;;;;;;;;5095375;27;45483;-75
2022/10/10 07:54:19;;;;;;;;;16.75;16.00;;;;;;;;5097118;27;45399;-73
2022/10/10 07:56:44;;;;;;;;;18.50;18.50;;;;;;;;5095840;27;45234;-71
2022/10/10 07:59:09;;;;;;;;;22.75;22.75;;;;;;;;5093908;27;48384;-76
2022/10/10 08:01:34;;;;;;;;;21.00;20.25;;;;;;;;5096479;27;45189;-72
2022/10/10 08:03:59;;;;;;;;;18.50;18.50;;;;;;;;5097804;27;45476;-76
2022/10/10 08:06:24;;;;;;;;;19.50;19.50;;;;;;;;5097063;27;45220;-79
2022/10/10 08:08:50;;;;;;;;;17.75;16.75;;;;;;;;5097242;27;45353;-78
2022/10/10 08:11:15;;;;;;;;;18.25;18.25;;;;;;;;5097295;27;45385;-81
2022/10/10 08:13:41;;;;;;;;;23.00;22.75;;;;;;;;5097269;27;45377;-75
2022/10/10 08:16:06;;;;;;;;;22.50;22.50;;;;;;;;5096605;27;45322;-76
2022/10/10 08:18:32;;;;;;;;;18.50;18.50;;;;;;;;5105475;27;46289;-72
2022/10/10 08:20:58;;;;;;;;;21.00;20.25;;;;;;;;5112880;27;45281;-71
2022/10/10 08:23:23;;;;;;;;;19.25;19.25;;;;;;;;5103155;27;45247;-72
2022/10/10 08:25:48;;;;;;;;;20.75;19.50;;;;;;;;5103499;27;45264;-80
2022/10/10 08:28:14;;;;;;;;;21.25;20.75;;;;;;;;5100206;27;45239;-74
2022/10/10 08:30:40;;;;;;;;;27.75;27.75;;;;;;;;5098141;27;45419;-69
2022/10/10 08:33:05;;;;;;;;;28.50;27.50;;;;;;;;5099825;27;45245;-81
2022/10/10 08:35:30;;;;;;;;;20.25;20.25;;;;;;;;5097211;27;45296;-77
2022/10/10 08:37:55;;;;;;;;;19.50;19.50;;;;;;;;5097722;27;46183;-71
2022/10/10 08:40:22;;;;;;;;;20.25;19.75;;;;;;;;5101443;27;45258;-77
2022/10/10 08:42:50;;;;;;;;;19.25;19.25;;;;;;;;5101684;27;45447;-77
2022/10/10 08:45:18;;;;;;;;;25.50;25.50;;;;;;;;5096450;27;44887;-78
2022/10/10 08:47:51;;;;;;;;;32.00;29.50;;;;;;;;5097713;27;46150;-74
2022/10/10 08:50:25;;;;;;;;;21.25;21.25;;;;;;;;5098891;27;45265;-75
2022/10/10 08:52:58;;;;;;;;;24.75;24.25;;;;;;;;5098768;27;45302;-79
2022/10/10 08:55:23;;;;;;;;;23.00;23.00;;;;;;;;5097225;27;45436;-78
2022/10/10 08:57:58;;;;;;;;;20.25;20.25;;;;;;;;5097029;27;46141;-77
2022/10/10 09:00:24;;;;;;;;;17.00;17.00;;;;;;;;5097143;27;45269;-73
2022/10/10 09:02:59;;;;;;;;;15.75;14.50;;;;;;;;5096631;27;45349;-73
2022/10/10 09:05:24;;;;;;;;;19.50;19.50;;;;;;;;5097301;27;45396;-72
2022/10/10 09:08:01;;;;;;;;;19.75;19.75;;;;;;;;5098279;27;45446;-77
2022/10/10 09:10:44;;;;;;;;;21.75;21.75;;;;;;;;5113270;27;44906;-73
2022/10/10 09:13:18;;;;;;;;;14.25;14.25;;;;;;;;5098838;27;45284;-77
2022/10/10 09:15:50;;;;;;;;;18.50;16.50;;;;;;;;5100179;27;45358;-78
2022/10/10 09:18:21;;;;;;;;;18.75;18.50;;;;;;;;5100699;27;45426;-75
2022/10/10 09:20:51;;;;;;;;;19.00;18.75;;;;;;;;5099902;27;45364;-76
2022/10/10 09:23:22;;;;;;;;;18.00;18.00;;;;;;;;5099613;27;45317;-75
2022/10/10 09:25:47;;;;;;;;;20.50;20.50;;;;;;;;5099176;27;45222;-75
2022/10/10 09:28:12;;;;;;;;;21.50;21.50;;;;;;;;5098906;27;46793;-75
2022/10/10 09:30:43;;;;;;;;;19.75;18.25;;;;;;;;5099242;27;45488;-71
2022/10/10 09:33:19;;;;;;;;;25.00;23.00;;;;;;;;5099365;27;45308;-76
2022/10/10 09:35:45;;;;;;;;;19.00;19.00;;;;;;;;5099891;27;45299;-80
2022/10/10 09:38:32;;;;;;;;;18.75;18.75;;;;;;;;5099241;27;45439;-70
2022/10/10 09:41:20;;;;;;;;;18.75;18.75;;;;;;;;5097149;27;45328;-67
2022/10/10 09:43:47;;;;;;;;;17.75;17.75;;;;;;;;5088396;27;45469;-72
2022/10/10 09:46:12;;;;;;;;;24.00;22.00;;;;;;;;5099845;27;45508;-69
2022/10/10 09:48:38;;;;;;;;;23.50;22.50;;;;;;;;5097863;27;47028;-74
2022/10/10 09:51:05;;;;;;;;;22.75;22.50;;;;;;;;5098897;27;45382;-74
2022/10/10 09:53:31;;;;;;;;;21.75;21.75;;;;;;;;5099089;27;45335;-76
2022/10/10 09:55:57;;;;;;;;;19.50;18.75;;;;;;;;5099882;27;45230;-72
2022/10/10 09:58:23;;;;;;;;;16.00;16.00;;;;;;;;5098346;27;45402;-75
2022/10/10 10:00:48;;;;;;;;;14.25;14.00;;;;;;;;5098580;27;44689;-71
2022/10/10 10:03:15;;;;;;;;;17.50;17.50;;;;;;;;5098719;27;45201;-71
2022/10/10 10:05:43;;;;;;;;;14.50;14.50;;;;;;;;5099456;27;45456;-71
2022/10/10 10:08:24;;;;;;;;;19.25;19.25;;;;;;;;5099739;27;46364;-71
2022/10/10 10:10:50;;;;;;;;;15.75;15.75;;;;;;;;5102899;27;45280;-69
2022/10/10 10:13:23;;;;;;;;;18.50;18.00;;;;;;;;5103571;27;45350;-73
2022/10/10 10:15:51;;;;;;;;;17.25;17.25;;;;;;;;5100978;27;45643;-77
2022/10/10 10:18:16;;;;;;;;;14.00;13.50;;;;;;;;5098718;27;45385;-71
2022/10/10 10:20:46;;;;;;;;;17.00;17.00;;;;;;;;5097893;27;45570;-70
2022/10/10 10:23:23;;;;;;;;;19.00;16.75;;;;;;;;5097279;27;45259;-69
2022/10/10 10:26:09;;;;;;;;;14.50;14.25;;;;;;;;5097979;27;45410;-72
2022/10/10 10:28:41;;;;;;;;;16.25;16.25;;;;;;;;5093422;27;45770;-69
2022/10/10 10:31:19;;;;;;;;;17.50;17.50;;;;;;;;5098298;27;45390;-70
2022/10/10 10:34:10;;;;;;;;;18.25;18.00;;;;;;;;5098121;27;46061;-76
2022/10/10 10:36:39;;;;;;;;;17.75;17.75;;;;;;;;5099426;27;45218;-78
2022/10/10 10:39:13;;;;;;;;;17.75;17.75;;;;;;;;5105268;27;45347;-73
2022/10/10 10:41:54;;;;;;;;;15.75;15.75;;;;;;;;5102111;27;44672;-74
2022/10/10 10:44:22;;;;;;;;;12.75;12.25;;;;;;;;5100713;27;45129;-68
2022/10/10 10:47:00;;;;;;;;;14.50;14.50;;;;;;;;5099251;27;45670;-74
2022/10/10 10:49:34;;;;;;;;;16.75;16.75;;;;;;;;5098654;27;45408;-76
2022/10/10 10:52:02;;;;;;;;;15.75;15.75;;;;;;;;5099019;27;45422;-78
2022/10/10 10:54:42;;;;;;;;;14.75;14.25;;;;;;;;5099089;27;45592;-81
2022/10/10 10:57:10;;;;;;;;;19.00;19.00;;;;;;;;5098207;27;45376;-74
2022/10/10 10:59:43;;;;;;;;;16.50;16.50;;;;;;;;5099809;27;45469;-79
2022/10/10 11:02:08;;;;;;;;;16.25;16.25;;;;;;;;5100405;27;45258;-79
2022/10/10 11:04:52;;;;;;;;;17.50;17.50;;;;;;;;5097811;27;45264;-80
2022/10/10 11:07:24;;;;;;;;;17.75;17.75;;;;;;;;5098504;27;45576;-78
2022/10/10 11:10:02;;;;;;;;;18.50;18.50;;;;;;;;5103638;27;45348;-75
2022/10/10 11:12:42;;;;;;;;;19.00;19.00;;;;;;;;5101657;27;45239;-77
2022/10/10 11:15:10;;;;;;;;;17.50;17.50;;;;;;;;5096338;27;45973;-73
2022/10/10 11:17:38;;;;;;;;;15.50;15.50;;;;;;;;5097409;27;45326;-73
2022/10/10 11:20:19;;;;;;;;;18.00;16.50;;;;;;;;5098123;27;45453;-74
2022/10/10 11:22:48;;;;;;;;;24.25;23.50;;;;;;;;5097196;27;45394;-77
2022/10/10 11:25:18;;;;;;;;;19.25;19.25;;;;;;;;5099692;27;45324;-74
2022/10/10 11:27:58;;;;;;;;;18.00;18.00;;;;;;;;5097271;27;45474;-73
2022/10/10 11:30:24;;;;;;;;;20.25;20.25;;;;;;;;5100757;27;45254;-74
2022/10/10 11:32:53;;;;;;;;;14.50;14.50;;;;;;;;5101794;27;45363;-75
2022/10/10 11:35:22;;;;;;;;;14.75;14.50;;;;;;;;5097009;27;45884;-70
2022/10/10 11:37:52;;;;;;;;;16.25;16.25;;;;;;;;5097474;27;45288;-77
2022/10/10 11:40:46;;;;;;;;;19.00;19.00;;;;;;;;5097590;27;45456;-74
2022/10/10 11:43:15;;;;;;;;;16.25;15.25;;;;;;;;5096233;27;45462;-75
2022/10/10 11:45:45;;;;;;;;;18.50;17.75;;;;;;;;5099657;27;45382;-73
2022/10/10 11:48:27;;;;;;;;;23.50;23.50;;;;;;;;5105644;27;45304;-75
2022/10/10 11:50:55;;;;;;;;;17.50;17.00;;;;;;;;5101345;27;46479;-77
2022/10/10 11:53:20;;;;;;;;;16.00;15.25;;;;;;;;5100039;27;45468;-72
2022/10/10 11:55:51;;;;;;;;;14.25;14.25;;;;;;;;5101900;27;44672;-79
2022/10/10 11:58:35;;;;;;;;;15.75;15.75;;;;;;;;5099359;27;45386;-75
2022/10/10 12:01:04;;;;;;;;;15.25;15.25;;;;;;;;5098315;27;45409;-78
2022/10/10 12:03:30;;;;;;;;;18.00;17.25;;;;;;;;5099107;27;45257;-75
2022/10/10 12:06:01;;;;;;;;;15.25;15.25;;;;;;;;5108451;27;45823;-71
2022/10/10 12:08:33;;;;;;;;;17.00;17.00;;;;;;;;5105580;27;45275;-73
2022/10/10 12:11:04;;;;;;;;;17.00;15.75;;;;;;;;5098398;27;45432;-72
2022/10/10 12:13:34;;;;;;;;;16.25;16.25;;;;;;;;5098546;27;45210;-76
2022/10/10 12:16:22;;;;;;;;;18.25;18.00;;;;;;;;5098740;27;45393;-69
2022/10/10 12:18:54;;;;;;;;;16.00;16.00;;;;;;;;5094910;27;45287;-71
2022/10/10 12:21:23;;;;;;;;;13.00;13.00;;;;;;;;5097524;27;46152;-72
2022/10/10 12:23:58;;;;;;;;;18.00;17.50;;;;;;;;5098315;27;45325;-72
2022/10/10 12:26:25;;;;;;;;;21.75;19.50;;;;;;;;5102389;27;45404;-74
2022/10/10 12:29:07;;;;;;;;;12.00;12.00;;;;;;;;5110605;27;45476;-79
2022/10/10 12:31:34;;;;;;;;;17.75;17.75;;;;;;;;5101122;27;46845;-76
2022/10/10 12:34:02;;;;;;;;;16.75;16.75;;;;;;;;5098812;27;45380;-75
2022/10/10 12:36:28;;;;;;;;;16.25;16.25;;;;;;;;5098491;27;45255;-81
2022/10/10 12:39:04;;;;;;;;;18.00;18.00;;;;;;;;5099254;27;45560;-80
2022/10/10 12:41:42;;;;;;;;;21.25;19.25;;;;;;;;5099027;27;45418;-76
2022/10/10 12:44:07;;;;;;;;;18.00;18.00;;;;;;;;5097196;27;45282;-73
2022/10/10 12:46:33;;;;;;;;;26.75;26.75;;;;;;;;5101851;27;45294;-80
2022/10/10 12:49:00;;;;;;;;;26.50;23.50;;;;;;;;5101817;27;45306;-81
2022/10/10 12:51:27;;;;;;;;;21.75;20.00;;;;;;;;5101843;27;46086;-82
2022/10/10 12:53:54;;;;;;;;;23.50;23.50;;;;;;;;5100779;27;45341;-80
2022/10/10 12:56:42;;;;;;;;;20.00;20.00;;;;;;;;5100554;27;45514;-80
2022/10/10 12:59:33;;;;;;;;;17.25;17.25;;;;;;;;5101046;27;45443;-73
2022/10/10 13:02:02;;;;;;;;;24.25;24.25;;;;;;;;5102008;27;46411;-68
2022/10/10 13:04:29;;;;;;;;;19.75;19.75;;;;;;;;5101752;27;45358;-78
2022/10/10 13:06:56;;;;;;;;;22.25;20.00;;;;;;;;5101383;27;45453;-80
2022/10/10 13:09:23;;;;;;;;;14.75;14.25;;;;;;;;5101586;27;45536;-75
2022/10/10 13:11:58;;;;;;;;;16.25;16.25;;;;;;;;5100642;27;46144;-77
2022/10/10 13:14:24;;;;;;;;;23.75;23.00;;;;;;;;5104223;27;45418;-72
2022/10/10 13:16:49;;;;;;;;;20.25;20.25;;;;;;;;5100594;27;45260;-80
2022/10/10 13:19:19;;;;;;;;;20.75;20.75;;;;;;;;5105576;27;45552;-79
2022/10/10 13:21:45;;;;;;;;;18.50;18.50;;;;;;;;5104048;27;45590;-71
2022/10/10 13:24:13;;;;;;;;;18.75;18.25;;;;;;;;5100354;27;45388;-77
2022/10/10 13:26:42;;;;;;;;;17.75;17.00;;;;;;;;5101359;27;45323;-77
2022/10/10 13:29:17;;;;;;;;;16.50;16.50;;;;;;;;5104183;27;45259;-69
2022/10/10 13:31:42;;;;;;;;;17.00;17.00;;;;;;;;5105640;27;46306;-67
2022/10/10 13:34:07;;;;;;;;;18.75;18.75;;;;;;;;5101582;27;45308;-70
2022/10/10 13:36:33;;;;;;;;;16.00;14.75;;;;;;;;5100060;27;45341;-75
2022/10/10 13:38:59;;;;;;;;;18.75;18.75;;;;;;;;5102345;27;45621;-80
2022/10/10 13:41:25;;;;;;;;;18.25;17.75;;;;;;;;5103435;27;46311;-74
2022/10/10 13:43:50;;;;;;;;;18.00;18.00;;;;;;;;5099149;27;45525;-75
2022/10/10 13:46:29;;;;;;;;;19.00;19.00;;;;;;;;5100436;27;45371;-69
2022/10/10 13:48:55;;;;;;;;;16.75;16.75;;;;;;;;5103088;27;45434;-70
2022/10/10 13:51:38;;;;;;;;;19.00;19.00;;;;;;;;5100440;27;45943;-69
2022/10/10 13:54:03;;;;;;;;;12.25;12.25;;;;;;;;5100611;27;45392;-77
2022/10/10 13:56:29;;;;;;;;;17.75;17.75;;;;;;;;5097516;27;45325;-72
2022/10/10 13:58:57;;;;;;;;;14.50;14.50;;;;;;;;5098848;27;45499;-70
2022/10/10 14:01:23;;;;;;;;;18.75;18.75;;;;;;;;5098951;27;45525;-68
2022/10/10 14:03:50;;;;;;;;;19.50;19.00;;;;;;;;5097892;27;45258;-71
2022/10/10 14:06:16;;;;;;;;;19.25;19.25;;;;;;;;5096665;27;45276;-79
2022/10/10 14:08:42;;;;;;;;;18.75;18.75;;;;;;;;5098199;27;45317;-79
2022/10/10 14:11:12;;;;;;;;;19.00;18.75;;;;;;;;5098258;27;46127;-76
2022/10/10 14:13:37;;;;;;;;;19.25;19.25;;;;;;;;5099795;27;45332;-74
2022/10/10 14:16:22;;;;;;;;;20.75;20.75;;;;;;;;5103012;27;45227;-69
2022/10/10 14:18:47;;;;;;;;;18.25;17.75;;;;;;;;5099582;27;45206;-74
2022/10/10 14:21:12;;;;;;;;;15.25;15.25;;;;;;;;5098754;27;46438;-71
2022/10/10 14:23:38;;;;;;;;;13.75;13.75;;;;;;;;5100082;27;45314;-80